Flight Track Log - Related Links

Times and Time Zones

All times are in EDT time to prevent confusion due to time zone crossing. See the MTN8503 flight status page for this flight to view local times or setup timezone preferences in your user account.

Time Position Orientation Groundspeed Altitude Reporting Facility
EDT Latitude Longitude Course Direction KTS MPH feet Rate Location/Type
Fri 07:39:00 AM 35.8172 -79.6505 141° Southeast  Level FlightAware Approximate
Fri 07:40:00 AM 35.7700 -79.6032 141° Southeast  Level FlightAware Approximate
Fri 07:40:50 AM 35.8283 -79.6553 104° East 255 293 9,000  Level Washington Center
Fri 07:41:00 AM 35.7228 -79.5560 141° Southeast  Level FlightAware Approximate
Fri 07:42:00 AM 35.6756 -79.5089 141° Southeast  Level FlightAware Approximate
Fri 07:42:16 AM 35.7517 -79.5769 140° Southeast 264 304 9,000  Level Washington Center
Fri 07:43:00 AM 35.6284 -79.4617 141° Southeast  Level FlightAware Approximate
Fri 07:43:15 AM 35.6953 -79.5206 141° Southeast 258 297 9,000  Level Washington Center
Fri 07:44:00 AM 35.5941 -79.4045 104° East  Level FlightAware Approximate
Fri 07:45:00 AM 35.6096 -79.4429 141° Southeast  Level FlightAware Approximate
Fri 07:45:00 AM 35.5792 -79.3320 104° East  Level FlightAware Approximate
Fri 07:46:00 AM 35.5643 -79.2596 104° East  Level FlightAware Approximate
Fri 07:52:00 AM 35.4980 -78.9412 105° East  Level FlightAware Approximate
Fri 07:53:00 AM 35.4818 -78.8693 105° East  Level FlightAware Approximate
Fri 07:53:00 AM 35.4647 -78.7772 105° East 246 283 9,000  Level Washington Center
Fri 07:54:00 AM 35.4655 -78.7974 106° East  Level FlightAware Approximate
Fri 07:54:19 AM 35.4425 -78.6744 105° East 245 282 9,000  Level Washington Center
Fri 07:55:00 AM 35.4491 -78.7255 106° East  Level FlightAware Approximate
Fri 07:55:20 AM 35.4236 -78.5894 105° East 246 283 9,000  Level Washington Center
Fri 07:56:00 AM 35.4327 -78.6536 106° East  Level FlightAware Approximate
Fri 07:56:15 AM 35.4089 -78.5200 105° East 246 283 9,000  Level Washington Center
Fri 07:57:00 AM 35.4163 -78.5818 105° East  Level FlightAware Approximate
Fri 07:57:15 AM 35.3900 -78.4328 105° East 245 282 9,000  Level Washington Center
Fri 07:58:00 AM 35.4006 -78.5098 105° East  Level FlightAware Approximate
Fri 07:58:16 AM 35.3708 -78.3583 108° East 245 282 9,000  Level Washington Center
Fri 07:59:16 AM 35.3542 -78.2711 103° East 244 281 9,000  Level Washington Center
Fri 08:00:17 AM 35.3350 -78.1917 106° East 244 281 9,000 -393 Level Washington Center
Fri 08:01:18 AM 35.3158 -78.1094 106° East 252 290 8,200 -992 Descending Washington Center
Fri 08:02:18 AM 35.2947 -78.0197 106° East 262 302 7,000 -1,200 Descending Washington Center
Fri 08:04:00 AM 35.2666 -77.8979 106° East  Level FlightAware Approximate
Fri 08:11:00 AM 35.1494 -77.3976 107° East  Level FlightAware Approximate
Fri 08:12:00 AM 35.1316 -77.3265 107° East  Level FlightAware Approximate
Fri 08:13:00 AM 35.1167 -77.2549 90° East  Level FlightAware Approximate
Fri 08:14:00 AM 35.1004 -77.1845 112° Southeast  Level FlightAware Approximate
Fri 08:15:00 AM 35.0802 -77.1147 101° East  Level FlightAware Approximate
Fri 08:16:00 AM 35.0681 -77.0419 101° East  Level FlightAware Approximate
Fri 08:17:00 AM 35.0667 -77.0333 101° East  Level FlightAware Approximate
Fri 08:18:00 AM 35.0730 -77.0429 101° East  Level Estimated

Login

Don't have an account? Register now (free) for customized features, flight alerts, and more!